createdAt,value
2022-11-15T00:00:59.251Z,100944.50
2022-11-15T00:03:28.282Z,100943.22
2022-11-15T00:05:55.123Z,100944.69
2022-11-15T00:08:21.740Z,100938.25
2022-11-15T00:10:59.006Z,100943.00
2022-11-15T00:13:25.688Z,100940.09
2022-11-15T00:15:52.873Z,100939.66
2022-11-15T00:18:19.744Z,100951.34
2022-11-15T00:20:46.268Z,100956.75
2022-11-15T00:23:13.070Z,100947.78
2022-11-15T00:25:39.684Z,100943.41
2022-11-15T00:28:06.221Z,100955.06
2022-11-15T00:30:33.079Z,100962.16
2022-11-15T00:33:04.185Z,100947.97
2022-11-15T00:35:34.551Z,100945.03
2022-11-15T00:38:01.929Z,100944.22
2022-11-15T00:40:28.743Z,100953.41
2022-11-15T00:42:55.300Z,100946.75
2022-11-15T00:45:21.813Z,100943.00
2022-11-15T00:47:48.430Z,100941.75
2022-11-15T00:50:15.689Z,100939.06
2022-11-15T00:52:42.517Z,100942.19
2022-11-15T00:55:15.740Z,100949.28
2022-11-15T00:57:42.437Z,100941.78
2022-11-15T01:00:09.484Z,100947.84
2022-11-15T01:02:36.125Z,100944.50
2022-11-15T01:05:03.053Z,100942.00
2022-11-15T01:07:29.685Z,100942.00
2022-11-15T01:09:56.283Z,100936.19
2022-11-15T01:12:22.801Z,100926.00
2022-11-15T01:14:50.628Z,100927.88
2022-11-15T01:17:17.173Z,100922.03
2022-11-15T01:19:43.675Z,100931.84
2022-11-15T01:22:10.207Z,100933.91
2022-11-15T01:24:36.800Z,100934.34
2022-11-15T01:27:03.364Z,100921.81
2022-11-15T01:29:29.848Z,100925.59
2022-11-15T01:31:56.413Z,100923.91
2022-11-15T01:34:22.915Z,100926.19
2022-11-15T01:36:49.449Z,100926.41
2022-11-15T01:39:16.412Z,100911.41
2022-11-15T01:41:42.938Z,100913.03
2022-11-15T01:44:37.309Z,100915.53
2022-11-15T01:47:17.277Z,100909.50
2022-11-15T01:50:13.312Z,100911.78
2022-11-15T01:52:41.479Z,100913.44
2022-11-15T01:55:18.760Z,100912.19
2022-11-15T01:57:49.709Z,100912.56
2022-11-15T02:00:16.942Z,100903.00
2022-11-15T02:02:44.040Z,100912.56
2022-11-15T02:05:10.970Z,100900.28
2022-11-15T02:07:37.794Z,100911.69
2022-11-15T02:10:13.511Z,100899.81
2022-11-15T02:12:41.444Z,100899.59
2022-11-15T02:15:09.785Z,100897.47
2022-11-15T02:18:03.864Z,100898.91
2022-11-15T02:20:42.197Z,100893.28
2022-11-15T02:23:11.378Z,100899.72
2022-11-15T02:25:58.137Z,100889.09
2022-11-15T02:29:00.972Z,100888.88
2022-11-15T02:31:30.811Z,100884.69
2022-11-15T02:34:13.574Z,100883.81
2022-11-15T02:36:50.446Z,100883.56
2022-11-15T02:39:28.216Z,100883.97
2022-11-15T02:42:30.434Z,100877.09
2022-11-15T02:44:59.776Z,100873.06
2022-11-15T02:47:28.586Z,100866.59
2022-11-15T02:49:58.377Z,100857.81
2022-11-15T02:52:28.372Z,100859.06
2022-11-15T02:54:57.229Z,100855.53
2022-11-15T02:57:50.406Z,100857.16
2022-11-15T03:00:19.383Z,100869.22
2022-11-15T03:03:07.279Z,100858.78
2022-11-15T03:05:52.494Z,100866.25
2022-11-15T03:08:41.080Z,100856.69
2022-11-15T03:11:12.396Z,100864.72
2022-11-15T03:13:45.538Z,100865.53
2022-11-15T03:16:18.836Z,100855.75
2022-11-15T03:18:51.075Z,100868.16
2022-11-15T03:21:20.615Z,100865.19
2022-11-15T03:23:49.782Z,100866.63
2022-11-15T03:26:20.397Z,100866.41
2022-11-15T03:29:18.175Z,100859.19
2022-11-15T03:31:51.385Z,100847.28
2022-11-15T03:34:35.518Z,100853.06
2022-11-15T03:37:02.797Z,100856.44
2022-11-15T03:39:30.186Z,100858.94
2022-11-15T03:42:24.532Z,100856.44
2022-11-15T03:45:09.764Z,100854.69
2022-11-15T03:47:41.539Z,100860.97
2022-11-15T03:50:34.992Z,100865.88
2022-11-15T03:53:01.635Z,100864.38
2022-11-15T03:55:28.157Z,100868.97
2022-11-15T03:57:58.787Z,100866.88
2022-11-15T04:00:25.578Z,100864.38
2022-11-15T04:02:52.104Z,100868.75
2022-11-15T04:05:19.042Z,100860.81
2022-11-15T04:07:45.567Z,100858.13
2022-11-15T04:10:13.302Z,100856.03
2022-11-15T04:12:44.081Z,100857.25
2022-11-15T04:15:15.709Z,100863.13
2022-11-15T04:17:44.677Z,100872.88
2022-11-15T04:20:33.653Z,100866.63
2022-11-15T04:23:20.472Z,100867.22
2022-11-15T04:25:50.318Z,100865.16
2022-11-15T04:28:16.845Z,100865.81
2022-11-15T04:30:43.371Z,100861.44
2022-11-15T04:33:10.010Z,100868.31
2022-11-15T04:35:36.607Z,100866.72
2022-11-15T04:38:05.424Z,100865.50
2022-11-15T04:40:32.264Z,100863.88
2022-11-15T04:43:03.635Z,100867.84
2022-11-15T04:45:31.194Z,100858.53
2022-11-15T04:47:57.704Z,100860.44
2022-11-15T04:50:24.472Z,100867.13
2022-11-15T04:52:53.429Z,100864.22
2022-11-15T04:55:19.931Z,100864.88
2022-11-15T04:57:46.787Z,100859.91
2022-11-15T05:00:15.959Z,100865.78
2022-11-15T05:03:01.163Z,100858.94
2022-11-15T05:05:27.686Z,100851.31
2022-11-15T05:07:54.212Z,100858.25
2022-11-15T05:10:20.716Z,100855.34
2022-11-15T05:12:48.162Z,100846.66
2022-11-15T05:15:14.729Z,100853.56
2022-11-15T05:17:41.287Z,100846.50
2022-11-15T05:20:08.291Z,100839.88
2022-11-15T05:22:34.865Z,100836.56
2022-11-15T05:25:01.479Z,100850.31
2022-11-15T05:27:28.102Z,100847.41
2022-11-15T05:29:54.591Z,100839.75
2022-11-15T05:32:21.926Z,100832.06
2022-11-15T05:34:48.512Z,100838.94
2022-11-15T05:37:15.471Z,100843.72
2022-11-15T05:39:42.164Z,100843.13
2022-11-15T05:42:15.157Z,100838.38
2022-11-15T05:44:48.259Z,100838.97
2022-11-15T05:47:20.603Z,100854.19
2022-11-15T05:49:49.343Z,100847.97
2022-11-15T05:52:20.429Z,100840.91
2022-11-15T05:54:47.360Z,100845.06
2022-11-15T05:57:13.935Z,100845.50
2022-11-15T05:59:41.944Z,100839.66
2022-11-15T06:02:08.517Z,100845.53
2022-11-15T06:04:35.081Z,100846.59
2022-11-15T06:07:01.691Z,100848.66
2022-11-15T06:09:28.259Z,100850.97
2022-11-15T06:11:54.803Z,100850.56
2022-11-15T06:14:21.885Z,100852.03
2022-11-15T06:16:48.466Z,100855.16
2022-11-15T06:19:14.974Z,100853.91
2022-11-15T06:21:41.571Z,100851.84
2022-11-15T06:24:08.202Z,100856.84
2022-11-15T06:26:34.710Z,100860.59
2022-11-15T06:29:01.237Z,100856.03
2022-11-15T06:31:27.738Z,100848.50
2022-11-15T06:33:54.275Z,100854.56
2022-11-15T06:36:21.745Z,100851.44
2022-11-15T06:38:48.544Z,100855.59
2022-11-15T06:41:15.710Z,100859.78
2022-11-15T06:43:42.443Z,100866.84
2022-11-15T06:46:09.321Z,100864.78
2022-11-15T06:48:37.213Z,100864.38
2022-11-15T06:51:05.125Z,100871.88
2022-11-15T06:53:32.456Z,100868.97
2022-11-15T06:56:02.636Z,100870.22
2022-11-15T06:58:29.426Z,100864.41
2022-11-15T07:01:03.026Z,100862.28
2022-11-15T07:03:30.160Z,100871.06
2022-11-15T07:06:02.806Z,100882.31
2022-11-15T07:08:33.267Z,100880.22
2022-11-15T07:11:02.728Z,100872.53
2022-11-15T07:13:34.809Z,100888.19
2022-11-15T07:16:06.626Z,100879.84
2022-11-15T07:18:36.062Z,100882.13
2022-11-15T07:21:04.448Z,100882.31
2022-11-15T07:23:31.373Z,100879.22
2022-11-15T07:25:59.373Z,100868.97
2022-11-15T07:28:27.105Z,100862.53
2022-11-15T07:30:53.887Z,100870.22
2022-11-15T07:33:20.528Z,100861.69
2022-11-15T07:35:50.316Z,100870.03
2022-11-15T07:38:20.551Z,100866.06
2022-11-15T07:40:47.930Z,100859.78
2022-11-15T07:43:14.760Z,100865.59
2022-11-15T07:45:45.897Z,100874.38
2022-11-15T07:48:12.793Z,100875.38
2022-11-15T07:50:42.318Z,100873.09
2022-11-15T07:53:10.176Z,100876.44
2022-11-15T07:55:37.424Z,100879.34
2022-11-15T07:58:09.593Z,100879.75
2022-11-15T08:00:37.123Z,100876.84
2022-11-15T08:03:06.055Z,100881.00
2022-11-15T08:05:33.675Z,100871.59
2022-11-15T08:08:00.450Z,100868.44
2022-11-15T08:10:28.319Z,100866.97
2022-11-15T08:13:03.735Z,100871.97
2022-11-15T08:15:31.257Z,100869.69
2022-11-15T08:17:59.726Z,100873.00
2022-11-15T08:20:27.685Z,100866.31
2022-11-15T08:22:54.229Z,100871.09
2022-11-15T08:25:20.760Z,100870.44
2022-11-15T08:27:47.371Z,100874.41
2022-11-15T08:30:14.753Z,100871.25
2022-11-15T08:32:41.361Z,100870.63
2022-11-15T08:35:08.448Z,100866.19
2022-11-15T08:37:35.251Z,100869.53
2022-11-15T08:40:01.910Z,100869.91
2022-11-15T08:42:28.502Z,100866.97
2022-11-15T08:44:54.987Z,100870.28
2022-11-15T08:47:21.506Z,100866.09
2022-11-15T08:49:48.284Z,100864.84
2022-11-15T08:52:15.525Z,100862.28
2022-11-15T08:54:42.089Z,100867.91
2022-11-15T08:57:10.491Z,100866.63
2022-11-15T08:59:37.671Z,100876.81
2022-11-15T09:02:05.019Z,100871.56
2022-11-15T09:04:31.591Z,100873.41
2022-11-15T09:06:58.160Z,100877.34
2022-11-15T09:09:24.682Z,100887.78
2022-11-15T09:11:51.797Z,100875.66
2022-11-15T09:14:18.362Z,100882.53
2022-11-15T09:16:44.897Z,100874.75
2022-11-15T09:19:12.021Z,100877.03
2022-11-15T09:21:38.720Z,100876.38
2022-11-15T09:24:05.604Z,100865.69
2022-11-15T09:26:32.094Z,100874.81
2022-11-15T09:28:58.652Z,100873.09
2022-11-15T09:31:25.802Z,100875.78
2022-11-15T09:33:52.350Z,100870.69
2022-11-15T09:36:18.949Z,100869.22
2022-11-15T09:38:45.491Z,100875.41
2022-11-15T09:41:14.920Z,100878.28
2022-11-15T09:43:56.409Z,100877.41
2022-11-15T09:46:54.931Z,100883.84
2022-11-15T09:49:22.427Z,100883.66
2022-11-15T09:51:51.528Z,100880.00
2022-11-15T09:54:54.906Z,100874.88
2022-11-15T09:57:30.875Z,100889.47
2022-11-15T10:00:44.287Z,100879.78
2022-11-15T10:03:16.922Z,100888.34
2022-11-15T10:06:03.954Z,100875.47
2022-11-15T10:08:39.866Z,100882.31
2022-11-15T10:11:36.026Z,100880.16
2022-11-15T10:14:11.546Z,100883.50
2022-11-15T10:17:07.324Z,100880.16
2022-11-15T10:19:52.176Z,100874.88
2022-11-15T10:22:27.725Z,100866.94
2022-11-15T10:25:09.677Z,100866.69
2022-11-15T10:27:36.997Z,100866.69
2022-11-15T10:30:11.138Z,100865.41
2022-11-15T10:32:37.992Z,100864.59
2022-11-15T10:35:21.750Z,100864.13
2022-11-15T10:37:48.467Z,100855.72
2022-11-15T10:40:25.125Z,100845.69
2022-11-15T10:43:15.472Z,100844.63
2022-11-15T10:45:43.099Z,100840.94
2022-11-15T10:48:12.689Z,100842.38
2022-11-15T10:50:41.766Z,100845.03
2022-11-15T10:53:32.187Z,100845.03
2022-11-15T10:56:09.203Z,100852.97
2022-11-15T10:58:40.075Z,100840.41
2022-11-15T11:01:18.722Z,100834.50
2022-11-15T11:03:59.406Z,100837.59
2022-11-15T11:06:26.919Z,100833.19
2022-11-15T11:09:01.500Z,100826.81
2022-11-15T11:11:49.249Z,100823.53
2022-11-15T11:14:28.747Z,100830.44
2022-11-15T11:17:11.755Z,100830.75
2022-11-15T11:19:48.022Z,100821.28
2022-11-15T11:22:59.421Z,100825.09
2022-11-15T11:25:31.060Z,100814.53
2022-11-15T11:28:15.093Z,100810.31
2022-11-15T11:31:19.186Z,100806.50
2022-11-15T11:34:12.015Z,100804.75
2022-11-15T11:36:51.715Z,100807.09
2022-11-15T11:39:39.035Z,100806.75
2022-11-15T11:42:29.827Z,100793.72
2022-11-15T11:45:02.110Z,100782.34
2022-11-15T11:47:34.780Z,100784.13
2022-11-15T11:50:13.786Z,100787.91
2022-11-15T11:52:59.536Z,100784.13
2022-11-15T11:56:03.106Z,100779.28
2022-11-15T11:58:42.549Z,100781.28
2022-11-15T12:01:12.772Z,100781.66
2022-11-15T12:03:46.696Z,100786.66
2022-11-15T12:06:34.533Z,100764.72
2022-11-15T12:09:21.922Z,100765.09
2022-11-15T12:12:12.061Z,100762.47
2022-11-15T12:14:44.900Z,100761.03
2022-11-15T12:17:12.873Z,100766.25
2022-11-15T12:19:41.403Z,100769.78
2022-11-15T12:22:21.789Z,100772.31
2022-11-15T12:24:57.480Z,100765.28
2022-11-15T12:27:47.255Z,100771.69
2022-11-15T12:30:19.869Z,100759.81
2022-11-15T12:32:57.660Z,100751.88
2022-11-15T12:35:30.753Z,100755.19
2022-11-15T12:37:57.879Z,100743.44
2022-11-15T12:40:36.700Z,100751.78
2022-11-15T12:43:04.872Z,100747.97
2022-11-15T12:45:43.781Z,100745.50
2022-11-15T12:48:16.643Z,100744.75
2022-11-15T12:50:55.413Z,100748.53
2022-11-15T12:53:25.309Z,100732.88
2022-11-15T12:56:12.970Z,100734.31
2022-11-15T12:58:57.050Z,100726.94
2022-11-15T13:01:36.353Z,100726.72
2022-11-15T13:04:22.326Z,100733.59
2022-11-15T13:06:52.953Z,100724.81
2022-11-15T13:09:34.754Z,100723.72
2022-11-15T13:12:02.917Z,100722.41
2022-11-15T13:14:38.690Z,100723.94
2022-11-15T13:17:35.701Z,100711.69
2022-11-15T13:20:08.334Z,100708.38
2022-11-15T13:22:53.458Z,100712.53
2022-11-15T13:25:46.272Z,100712.06
2022-11-15T13:28:12.744Z,100700.06
2022-11-15T13:30:39.363Z,100699.56
2022-11-15T13:33:16.266Z,100710.47
2022-11-15T13:35:49.298Z,100711.19
2022-11-15T13:38:28.016Z,100705.94
2022-11-15T13:40:54.586Z,100706.78
2022-11-15T13:43:24.055Z,100695.38
2022-11-15T13:46:19.799Z,100686.09
2022-11-15T13:48:53.568Z,100682.88
2022-11-15T13:51:23.828Z,100679.31
2022-11-15T13:53:56.781Z,100687.25
2022-11-15T13:56:23.730Z,100675.53
2022-11-15T13:58:50.549Z,100680.47
2022-11-15T14:01:20.812Z,100688.69
2022-11-15T14:04:00.143Z,100681.34
2022-11-15T14:06:31.637Z,100676.69
2022-11-15T14:08:59.900Z,100677.84
2022-11-15T14:11:26.989Z,100670.97
2022-11-15T14:14:05.767Z,100680.00
2022-11-15T14:16:37.928Z,100677.84
2022-11-15T14:19:06.351Z,100679.66
2022-11-15T14:21:33.426Z,100672.03
2022-11-15T14:24:19.873Z,100670.88
2022-11-15T14:26:46.515Z,100676.84
2022-11-15T14:29:28.804Z,100674.38
2022-11-15T14:32:23.079Z,100667.50
2022-11-15T14:34:55.661Z,100666.91
2022-11-15T14:37:25.423Z,100664.69
2022-11-15T14:39:53.126Z,100675.59
2022-11-15T14:42:20.437Z,100673.34
2022-11-15T14:44:47.981Z,100667.88
2022-11-15T14:47:14.537Z,100672.38
2022-11-15T14:49:41.764Z,100674.13
2022-11-15T14:52:36.276Z,100667.69
2022-11-15T14:55:10.278Z,100669.41
2022-11-15T14:57:36.768Z,100669.09
2022-11-15T15:00:06.322Z,100678.19
2022-11-15T15:02:32.916Z,100673.56
2022-11-15T15:05:02.153Z,100680.34
2022-11-15T15:07:28.825Z,100681.50
2022-11-15T15:10:11.376Z,100687.41
2022-11-15T15:12:42.494Z,100687.47
2022-11-15T15:15:18.037Z,100693.50
2022-11-15T15:17:44.670Z,100695.16
2022-11-15T15:20:11.895Z,100683.44
2022-11-15T15:22:38.583Z,100691.19
2022-11-15T15:25:22.859Z,100683.19
2022-11-15T15:27:50.113Z,100684.00
2022-11-15T15:30:16.853Z,100685.31
2022-11-15T15:32:43.375Z,100676.22
2022-11-15T15:35:15.291Z,100672.91
2022-11-15T15:37:44.184Z,100671.22
2022-11-15T15:40:21.097Z,100670.97
2022-11-15T15:42:48.424Z,100667.44
2022-11-15T15:45:15.994Z,100680.50
2022-11-15T15:47:42.904Z,100671.22
2022-11-15T15:50:18.491Z,100665.69
2022-11-15T15:52:45.019Z,100664.03
2022-11-15T15:55:11.718Z,100655.28
2022-11-15T15:57:38.338Z,100651.38
2022-11-15T16:00:06.287Z,100650.34
2022-11-15T16:02:36.331Z,100649.38
2022-11-15T16:05:07.738Z,100654.13
2022-11-15T16:07:34.294Z,100648.03
2022-11-15T16:10:01.303Z,100644.59
2022-11-15T16:12:32.118Z,100640.47
2022-11-15T16:14:59.339Z,100636.88
2022-11-15T16:17:34.416Z,100632.66
2022-11-15T16:20:01.421Z,100627.69
2022-11-15T16:22:30.163Z,100619.63
2022-11-15T16:24:57.574Z,100623.06
2022-11-15T16:27:24.748Z,100616.09
2022-11-15T16:29:51.384Z,100621.91
2022-11-15T16:32:18.108Z,100603.31
2022-11-15T16:34:48.756Z,100608.31
2022-11-15T16:37:23.985Z,100605.50
2022-11-15T16:39:51.211Z,100598.38
2022-11-15T16:42:17.733Z,100605.50
2022-11-15T16:44:45.007Z,100611.63
2022-11-15T16:47:20.708Z,100599.75
2022-11-15T16:49:47.648Z,100605.91
2022-11-15T16:52:17.612Z,100613.00
2022-11-15T16:54:46.748Z,100607.44
2022-11-15T16:57:13.243Z,100611.66
2022-11-15T16:59:39.854Z,100612.38
2022-11-15T17:02:12.571Z,100611.06
2022-11-15T17:04:39.534Z,100613.91
2022-11-15T17:07:06.893Z,100612.09
2022-11-15T17:09:34.338Z,100603.41
2022-11-15T17:12:00.887Z,100600.94
2022-11-15T17:14:27.518Z,100597.63
2022-11-15T17:16:57.072Z,100591.59
2022-11-15T17:19:23.571Z,100595.97
2022-11-15T17:21:50.114Z,100600.34
2022-11-15T17:24:17.334Z,100594.41
2022-11-15T17:26:43.991Z,100584.56
2022-11-15T17:29:10.700Z,100582.66
2022-11-15T17:31:37.996Z,100577.34
2022-11-15T17:34:06.095Z,100576.69
2022-11-15T17:36:32.871Z,100582.72
2022-11-15T17:39:00.118Z,100574.53
2022-11-15T17:41:27.921Z,100571.72
2022-11-15T17:43:58.008Z,100573.84
2022-11-15T17:46:24.567Z,100572.56
2022-11-15T17:48:51.128Z,100579.69
2022-11-15T17:51:18.985Z,100576.84
2022-11-15T17:53:47.427Z,100579.16
2022-11-15T17:56:16.768Z,100574.66
2022-11-15T17:58:57.661Z,100576.97
2022-11-15T18:01:32.623Z,100566.44
2022-11-15T18:04:01.978Z,100576.16
2022-11-15T18:06:31.259Z,100567.06
2022-11-15T18:08:58.366Z,100560.41
2022-11-15T18:11:33.664Z,100561.63
2022-11-15T18:14:04.586Z,100559.09
2022-11-15T18:16:34.342Z,100556.53
2022-11-15T18:19:01.202Z,100550.41
2022-11-15T18:21:29.643Z,100550.28
2022-11-15T18:23:59.565Z,100547.47
2022-11-15T18:26:28.548Z,100548.16
2022-11-15T18:28:57.308Z,100548.06
2022-11-15T18:31:28.744Z,100545.22
2022-11-15T18:33:58.178Z,100531.50
2022-11-15T18:36:27.445Z,100540.28
2022-11-15T18:38:56.138Z,100534.34
2022-11-15T18:41:30.911Z,100529.69
2022-11-15T18:44:01.050Z,100526.06
2022-11-15T18:46:33.942Z,100527.00
2022-11-15T18:49:02.626Z,100527.00
2022-11-15T18:51:32.205Z,100516.34
2022-11-15T18:54:01.137Z,100519.88
2022-11-15T18:56:29.993Z,100508.44
2022-11-15T18:58:58.450Z,100517.06
2022-11-15T19:01:27.621Z,100507.25
2022-11-15T19:03:56.470Z,100509.97
2022-11-15T19:06:29.131Z,100507.50
2022-11-15T19:08:58.255Z,100510.22
2022-11-15T19:11:31.105Z,100511.16
2022-11-15T19:14:03.165Z,100507.88
2022-11-15T19:16:33.204Z,100506.56
2022-11-15T19:19:03.008Z,100509.97
2022-11-15T19:21:31.683Z,100503.38
2022-11-15T19:23:59.906Z,100512.59
2022-11-15T19:26:27.654Z,100502.06
2022-11-15T19:28:59.435Z,100506.69
2022-11-15T19:31:28.149Z,100518.38
2022-11-15T19:33:55.839Z,100517.09
2022-11-15T19:36:26.850Z,100514.38
2022-11-15T19:38:54.221Z,100514.97
2022-11-15T19:41:22.598Z,100509.28
2022-11-15T19:43:52.739Z,100512.81
2022-11-15T19:46:21.995Z,100510.94
2022-11-15T19:48:48.663Z,100511.16
2022-11-15T19:51:21.823Z,100506.06
2022-11-15T19:53:49.995Z,100501.47
2022-11-15T19:56:18.330Z,100498.75
2022-11-15T19:58:45.946Z,100507.13
2022-11-15T20:01:22.791Z,100490.59
2022-11-15T20:03:51.201Z,100492.22
2022-11-15T20:06:19.221Z,100500.38
2022-11-15T20:08:46.983Z,100497.66
2022-11-15T20:11:14.609Z,100500.50
2022-11-15T20:13:42.213Z,100493.75
2022-11-15T20:16:10.698Z,100503.00
2022-11-15T20:18:37.652Z,100493.41
2022-11-15T20:21:06.567Z,100497.44
2022-11-15T20:23:33.598Z,100491.75
2022-11-15T20:26:00.293Z,100484.38
2022-11-15T20:28:28.754Z,100492.09
2022-11-15T20:30:59.072Z,100491.34
2022-11-15T20:33:27.340Z,100493.25
2022-11-15T20:35:54.714Z,100485.91
2022-11-15T20:38:22.047Z,100487.69
2022-11-15T20:40:50.645Z,100484.72
2022-11-15T20:43:19.913Z,100479.38
2022-11-15T20:45:48.703Z,100482.94
2022-11-15T20:48:16.506Z,100482.09
2022-11-15T20:50:44.973Z,100476.44
2022-11-15T20:53:14.820Z,100481.03
2022-11-15T20:55:43.336Z,100486.72
2022-11-15T20:58:11.169Z,100474.28
2022-11-15T21:00:38.462Z,100475.13
2022-11-15T21:03:09.029Z,100476.28
2022-11-15T21:05:39.385Z,100471.28
2022-11-15T21:08:07.149Z,100473.56
2022-11-15T21:10:53.236Z,100474.13
2022-11-15T21:13:20.650Z,100468.22
2022-11-15T21:15:47.790Z,100463.81
2022-11-15T21:18:15.035Z,100455.66
2022-11-15T21:20:41.804Z,100475.06
2022-11-15T21:23:09.220Z,100456.00
2022-11-15T21:25:35.959Z,100456.34
2022-11-15T21:28:03.027Z,100465.22
2022-11-15T21:30:30.030Z,100453.53
2022-11-15T21:32:56.666Z,100462.25
2022-11-15T21:35:23.852Z,100460.13
2022-11-15T21:37:56.076Z,100445.53
2022-11-15T21:40:23.503Z,100453.38
2022-11-15T21:42:50.068Z,100449.25
2022-11-15T21:45:16.717Z,100450.91
2022-11-15T21:47:46.142Z,100454.19
2022-11-15T21:50:13.509Z,100451.97
2022-11-15T21:52:40.890Z,100448.38
2022-11-15T21:55:08.660Z,100450.81
2022-11-15T21:57:35.296Z,100439.06
2022-11-15T22:00:20.428Z,100447.56
2022-11-15T22:02:47.047Z,100452.44
2022-11-15T22:05:13.640Z,100449.13
2022-11-15T22:07:40.178Z,100451.00
2022-11-15T22:10:06.992Z,100443.69
2022-11-15T22:12:33.656Z,100435.53
2022-11-15T22:15:00.231Z,100442.03
2022-11-15T22:17:46.897Z,100428.41
2022-11-15T22:20:37.611Z,100434.34
2022-11-15T22:23:01.665Z,100433.84
2022-11-15T22:25:28.579Z,100423.47
2022-11-15T22:27:55.133Z,100419.31
2022-11-15T22:30:22.644Z,100422.63
2022-11-15T22:32:49.270Z,100418.00
2022-11-15T22:35:16.118Z,100417.41
2022-11-15T22:37:42.935Z,100414.94
2022-11-15T22:40:10.076Z,100419.53
2022-11-15T22:42:36.600Z,100418.47
2022-11-15T22:45:03.637Z,100416.50
2022-11-15T22:47:30.185Z,100426.66
2022-11-15T22:49:56.670Z,100419.06
2022-11-15T22:52:23.387Z,100422.75
2022-11-15T22:54:49.958Z,100414.00
2022-11-15T22:57:16.482Z,100420.03
2022-11-15T22:59:43.071Z,100419.44
2022-11-15T23:02:09.605Z,100411.88
2022-11-15T23:04:36.146Z,100411.78
2022-11-15T23:07:02.899Z,100408.44
2022-11-15T23:09:29.530Z,100405.72
2022-11-15T23:12:14.807Z,100402.44
2022-11-15T23:14:41.419Z,100402.44
2022-11-15T23:17:07.903Z,100408.13
2022-11-15T23:19:34.539Z,100409.75
2022-11-15T23:22:19.410Z,100412.47
2022-11-15T23:24:46.566Z,100400.44
2022-11-15T23:27:15.585Z,100396.28
2022-11-15T23:30:00.553Z,100393.56
2022-11-15T23:32:45.587Z,100397.94
2022-11-15T23:35:12.592Z,100390.75
2022-11-15T23:37:39.255Z,100395.72
2022-11-15T23:40:06.535Z,100373.09
2022-11-15T23:42:33.055Z,100385.16
2022-11-15T23:44:59.608Z,100374.16
2022-11-15T23:47:26.287Z,100377.63
2022-11-15T23:49:52.807Z,100368.03
2022-11-15T23:52:19.361Z,100364.16
2022-11-15T23:54:45.948Z,100368.41
2022-11-15T23:57:12.536Z,100359.94
2022-11-15T23:59:40.174Z,100369.16
